sensor_id;sensor_type;location;lat;lon;timestamp;P1;durP1;ratioP1;P2;durP2;ratioP2
40601;SDS011;26310;50.278;19.032;2022-12-13T00:04:52;8.63;;;5.53;;
40601;SDS011;26310;50.278;19.032;2022-12-13T00:09:55;10.13;;;5.47;;
40601;SDS011;26310;50.278;19.032;2022-12-13T00:14:58;12.07;;;5.20;;
40601;SDS011;26310;50.278;19.032;2022-12-13T00:20:01;7.13;;;4.63;;
40601;SDS011;26310;50.278;19.032;2022-12-13T00:25:05;10.93;;;6.17;;
40601;SDS011;26310;50.278;19.032;2022-12-13T00:30:08;8.20;;;4.87;;
40601;SDS011;26310;50.278;19.032;2022-12-13T05:31:37;12.03;;;6.83;;
40601;SDS011;26310;50.278;19.032;2022-12-13T05:36:41;15.40;;;7.33;;
40601;SDS011;26310;50.278;19.032;2022-12-13T05:41:43;9.73;;;5.90;;
40601;SDS011;26310;50.278;19.032;2022-12-13T05:46:46;10.17;;;6.73;;
40601;SDS011;26310;50.278;19.032;2022-12-13T05:51:49;12.97;;;6.47;;
40601;SDS011;26310;50.278;19.032;2022-12-13T05:56:52;13.00;;;6.30;;
40601;SDS011;26310;50.278;19.032;2022-12-13T06:01:55;9.00;;;5.87;;
40601;SDS011;26310;50.278;19.032;2022-12-13T06:06:58;12.40;;;6.10;;
40601;SDS011;26310;50.278;19.032;2022-12-13T06:12:00;11.37;;;6.63;;
40601;SDS011;26310;50.278;19.032;2022-12-13T06:17:03;11.37;;;6.77;;
40601;SDS011;26310;50.278;19.032;2022-12-13T06:22:07;15.03;;;8.40;;
40601;SDS011;26310;50.278;19.032;2022-12-13T06:27:09;14.20;;;7.40;;
40601;SDS011;26310;50.278;19.032;2022-12-13T06:32:12;13.13;;;7.57;;
40601;SDS011;26310;50.278;19.032;2022-12-13T06:37:15;12.80;;;7.33;;
40601;SDS011;26310;50.278;19.032;2022-12-13T06:42:18;12.27;;;7.50;;
40601;SDS011;26310;50.278;19.032;2022-12-13T06:47:26;16.27;;;7.57;;
40601;SDS011;26310;50.278;19.032;2022-12-13T06:52:33;19.20;;;7.93;;
40601;SDS011;26310;50.278;19.032;2022-12-13T06:57:36;12.00;;;7.30;;
40601;SDS011;26310;50.278;19.032;2022-12-13T07:02:41;16.90;;;7.33;;
40601;SDS011;26310;50.278;19.032;2022-12-13T07:07:44;12.70;;;7.30;;
40601;SDS011;26310;50.278;19.032;2022-12-13T07:12:47;20.47;;;9.00;;
40601;SDS011;26310;50.278;19.032;2022-12-13T07:17:50;21.07;;;8.83;;
40601;SDS011;26310;50.278;19.032;2022-12-13T07:22:53;14.60;;;8.37;;
40601;SDS011;26310;50.278;19.032;2022-12-13T07:28:00;12.13;;;7.20;;
40601;SDS011;26310;50.278;19.032;2022-12-13T07:33:05;11.80;;;7.80;;
40601;SDS011;26310;50.278;19.032;2022-12-13T07:38:08;12.40;;;7.57;;
40601;SDS011;26310;50.278;19.032;2022-12-13T07:43:12;15.17;;;7.90;;
40601;SDS011;26310;50.278;19.032;2022-12-13T07:48:17;13.80;;;7.77;;
40601;SDS011;26310;50.278;19.032;2022-12-13T07:53:20;12.37;;;8.03;;
40601;SDS011;26310;50.278;19.032;2022-12-13T07:58:23;14.43;;;8.37;;
40601;SDS011;26310;50.278;19.032;2022-12-13T08:03:26;13.73;;;8.23;;
40601;SDS011;26310;50.278;19.032;2022-12-13T08:08:30;15.53;;;9.03;;
40601;SDS011;26310;50.278;19.032;2022-12-13T08:13:33;12.67;;;7.70;;
40601;SDS011;26310;50.278;19.032;2022-12-13T08:18:37;11.03;;;6.97;;
40601;SDS011;26310;50.278;19.032;2022-12-13T08:23:40;13.77;;;8.30;;
40601;SDS011;26310;50.278;19.032;2022-12-13T08:28:43;20.20;;;7.03;;
40601;SDS011;26310;50.278;19.032;2022-12-13T08:33:46;13.47;;;6.83;;
40601;SDS011;26310;50.278;19.032;2022-12-13T08:38:50;15.63;;;7.83;;
40601;SDS011;26310;50.278;19.032;2022-12-13T08:43:55;11.33;;;6.83;;
40601;SDS011;26310;50.278;19.032;2022-12-13T08:48:58;9.73;;;5.50;;
40601;SDS011;26310;50.278;19.032;2022-12-13T08:54:01;6.23;;;5.00;;
40601;SDS011;26310;50.278;19.032;2022-12-13T08:59:12;11.90;;;6.00;;
40601;SDS011;26310;50.278;19.032;2022-12-13T09:04:16;8.40;;;5.17;;
40601;SDS011;26310;50.278;19.032;2022-12-13T09:09:32;8.73;;;4.90;;
40601;SDS011;26310;50.278;19.032;2022-12-13T09:14:37;7.00;;;5.00;;
40601;SDS011;26310;50.278;19.032;2022-12-13T09:19:46;11.70;;;6.10;;
40601;SDS011;26310;50.278;19.032;2022-12-13T09:24:49;7.87;;;4.20;;
40601;SDS011;26310;50.278;19.032;2022-12-13T09:29:52;6.93;;;4.63;;
40601;SDS011;26310;50.278;19.032;2022-12-13T09:34:55;10.47;;;4.80;;
40601;SDS011;26310;50.278;19.032;2022-12-13T09:39:58;10.57;;;5.60;;
40601;SDS011;26310;50.278;19.032;2022-12-13T09:45:17;11.07;;;5.50;;
40601;SDS011;26310;50.278;19.032;2022-12-13T09:50:33;12.47;;;6.23;;
40601;SDS011;26310;50.278;19.032;2022-12-13T09:55:45;13.77;;;6.43;;
40601;SDS011;26310;50.278;19.032;2022-12-13T10:00:50;13.27;;;7.13;;
40601;SDS011;26310;50.278;19.032;2022-12-13T10:06:07;19.93;;;10.50;;
40601;SDS011;26310;50.278;19.032;2022-12-13T10:11:25;15.87;;;8.90;;
40601;SDS011;26310;50.278;19.032;2022-12-13T10:21:39;21.57;;;8.83;;
40601;SDS011;26310;50.278;19.032;2022-12-13T10:26:43;18.63;;;9.67;;
40601;SDS011;26310;50.278;19.032;2022-12-13T10:31:47;22.37;;;11.13;;
40601;SDS011;26310;50.278;19.032;2022-12-13T10:36:51;16.77;;;9.63;;
40601;SDS011;26310;50.278;19.032;2022-12-13T10:42:04;14.10;;;8.10;;
40601;SDS011;26310;50.278;19.032;2022-12-13T10:47:31;14.53;;;8.63;;
40601;SDS011;26310;50.278;19.032;2022-12-13T10:52:39;18.30;;;9.50;;
40601;SDS011;26310;50.278;19.032;2022-12-13T10:57:48;18.20;;;8.07;;
40601;SDS011;26310;50.278;19.032;2022-12-13T11:02:53;18.87;;;9.63;;
40601;SDS011;26310;50.278;19.032;2022-12-13T11:08:10;14.07;;;8.47;;
40601;SDS011;26310;50.278;19.032;2022-12-13T11:13:22;17.77;;;10.20;;
40601;SDS011;26310;50.278;19.032;2022-12-13T11:18:33;19.47;;;9.20;;
40601;SDS011;26310;50.278;19.032;2022-12-13T11:23:47;14.33;;;8.00;;
40601;SDS011;26310;50.278;19.032;2022-12-13T11:39:42;11.00;;;8.13;;
40601;SDS011;26310;50.278;19.032;2022-12-13T11:45:20;10.33;;;6.07;;
40601;SDS011;26310;50.278;19.032;2022-12-13T11:55:51;18.03;;;7.47;;
40601;SDS011;26310;50.278;19.032;2022-12-13T12:01:11;13.03;;;7.37;;
40601;SDS011;26310;50.278;19.032;2022-12-13T12:06:22;12.13;;;7.13;;
40601;SDS011;26310;50.278;19.032;2022-12-13T12:16:47;12.63;;;6.67;;
40601;SDS011;26310;50.278;19.032;2022-12-13T12:22:13;9.17;;;5.70;;
40601;SDS011;26310;50.278;19.032;2022-12-13T12:27:38;10.47;;;6.70;;
40601;SDS011;26310;50.278;19.032;2022-12-13T12:33:10;15.77;;;8.10;;
40601;SDS011;26310;50.278;19.032;2022-12-13T12:43:40;12.17;;;6.33;;
40601;SDS011;26310;50.278;19.032;2022-12-13T12:54:40;10.27;;;6.23;;
40601;SDS011;26310;50.278;19.032;2022-12-13T13:00:08;10.57;;;6.10;;
40601;SDS011;26310;50.278;19.032;2022-12-13T13:10:27;14.43;;;7.73;;
40601;SDS011;26310;50.278;19.032;2022-12-13T13:20:33;11.80;;;6.70;;
40601;SDS011;26310;50.278;19.032;2022-12-13T13:25:36;11.30;;;6.63;;
40601;SDS011;26310;50.278;19.032;2022-12-13T13:31:03;11.97;;;7.27;;
40601;SDS011;26310;50.278;19.032;2022-12-13T13:36:28;12.77;;;5.93;;
40601;SDS011;26310;50.278;19.032;2022-12-13T13:41:52;13.07;;;7.37;;
40601;SDS011;26310;50.278;19.032;2022-12-13T13:52:22;17.83;;;9.30;;
40601;SDS011;26310;50.278;19.032;2022-12-13T14:09:05;19.93;;;10.60;;
40601;SDS011;26310;50.278;19.032;2022-12-13T14:30:42;15.37;;;9.37;;
40601;SDS011;26310;50.278;19.032;2022-12-13T14:35:59;23.77;;;10.57;;
40601;SDS011;26310;50.278;19.032;2022-12-13T14:41:04;21.40;;;10.07;;
40601;SDS011;26310;50.278;19.032;2022-12-13T14:46:09;19.10;;;10.70;;
40601;SDS011;26310;50.278;19.032;2022-12-13T14:51:23;14.50;;;9.57;;
40601;SDS011;26310;50.278;19.032;2022-12-13T14:56:32;19.30;;;10.37;;
40601;SDS011;26310;50.278;19.032;2022-12-13T15:01:36;15.70;;;9.20;;
40601;SDS011;26310;50.278;19.032;2022-12-13T15:06:39;15.57;;;7.70;;
40601;SDS011;26310;50.278;19.032;2022-12-13T15:11:49;23.50;;;10.90;;
40601;SDS011;26310;50.278;19.032;2022-12-13T15:16:53;18.43;;;8.57;;
40601;SDS011;26310;50.278;19.032;2022-12-13T15:27:06;17.63;;;9.43;;
40601;SDS011;26310;50.278;19.032;2022-12-13T15:32:10;17.50;;;8.80;;
40601;SDS011;26310;50.278;19.032;2022-12-13T15:37:19;21.13;;;10.07;;
40601;SDS011;26310;50.278;19.032;2022-12-13T15:42:32;18.43;;;8.67;;
40601;SDS011;26310;50.278;19.032;2022-12-13T15:47:36;16.00;;;8.37;;
40601;SDS011;26310;50.278;19.032;2022-12-13T15:52:39;18.67;;;10.33;;
40601;SDS011;26310;50.278;19.032;2022-12-13T15:57:49;19.77;;;10.53;;
40601;SDS011;26310;50.278;19.032;2022-12-13T16:03:01;20.03;;;9.60;;
40601;SDS011;26310;50.278;19.032;2022-12-13T16:13:37;22.67;;;10.47;;
40601;SDS011;26310;50.278;19.032;2022-12-13T16:18:51;19.30;;;9.33;;
40601;SDS011;26310;50.278;19.032;2022-12-13T16:23:55;15.20;;;8.63;;
40601;SDS011;26310;50.278;19.032;2022-12-13T16:28:58;16.97;;;9.43;;
40601;SDS011;26310;50.278;19.032;2022-12-13T16:34:02;24.57;;;10.90;;
40601;SDS011;26310;50.278;19.032;2022-12-13T16:39:08;17.07;;;8.57;;
40601;SDS011;26310;50.278;19.032;2022-12-13T16:44:18;16.27;;;9.03;;
40601;SDS011;26310;50.278;19.032;2022-12-13T16:49:27;21.07;;;11.00;;
40601;SDS011;26310;50.278;19.032;2022-12-13T16:54:30;23.40;;;9.73;;
40601;SDS011;26310;50.278;19.032;2022-12-13T16:59:33;20.10;;;10.33;;
40601;SDS011;26310;50.278;19.032;2022-12-13T17:04:36;16.83;;;9.00;;
40601;SDS011;26310;50.278;19.032;2022-12-13T17:09:42;17.90;;;8.33;;
40601;SDS011;26310;50.278;19.032;2022-12-13T17:14:45;20.33;;;9.77;;
40601;SDS011;26310;50.278;19.032;2022-12-13T17:19:47;23.10;;;9.43;;
40601;SDS011;26310;50.278;19.032;2022-12-13T17:24:50;18.07;;;7.63;;
40601;SDS011;26310;50.278;19.032;2022-12-13T17:29:53;12.60;;;6.73;;
40601;SDS011;26310;50.278;19.032;2022-12-13T17:34:56;11.43;;;6.77;;
40601;SDS011;26310;50.278;19.032;2022-12-13T17:39:59;14.77;;;7.60;;
40601;SDS011;26310;50.278;19.032;2022-12-13T17:45:02;22.20;;;9.20;;
40601;SDS011;26310;50.278;19.032;2022-12-13T17:50:05;21.03;;;9.63;;
40601;SDS011;26310;50.278;19.032;2022-12-13T17:55:09;16.83;;;8.70;;
40601;SDS011;26310;50.278;19.032;2022-12-13T18:00:19;20.07;;;9.13;;
40601;SDS011;26310;50.278;19.032;2022-12-13T18:05:22;21.57;;;10.07;;
40601;SDS011;26310;50.278;19.032;2022-12-13T18:10:28;22.67;;;9.50;;
40601;SDS011;26310;50.278;19.032;2022-12-13T18:15:32;18.93;;;10.40;;
40601;SDS011;26310;50.278;19.032;2022-12-13T18:20:36;20.27;;;10.50;;
40601;SDS011;26310;50.278;19.032;2022-12-13T18:25:39;15.90;;;9.27;;
40601;SDS011;26310;50.278;19.032;2022-12-13T18:30:42;20.40;;;10.30;;
40601;SDS011;26310;50.278;19.032;2022-12-13T18:35:45;14.93;;;8.57;;
40601;SDS011;26310;50.278;19.032;2022-12-13T18:40:49;17.83;;;9.63;;
40601;SDS011;26310;50.278;19.032;2022-12-13T18:45:52;20.37;;;10.80;;
40601;SDS011;26310;50.278;19.032;2022-12-13T18:50:59;16.47;;;9.60;;
40601;SDS011;26310;50.278;19.032;2022-12-13T18:56:15;19.53;;;10.40;;
40601;SDS011;26310;50.278;19.032;2022-12-13T19:01:20;16.77;;;9.20;;
40601;SDS011;26310;50.278;19.032;2022-12-13T19:06:25;19.83;;;11.73;;
40601;SDS011;26310;50.278;19.032;2022-12-13T19:11:28;25.17;;;12.70;;
40601;SDS011;26310;50.278;19.032;2022-12-13T19:16:31;27.40;;;14.07;;
40601;SDS011;26310;50.278;19.032;2022-12-13T19:21:34;26.00;;;14.13;;
40601;SDS011;26310;50.278;19.032;2022-12-13T19:26:38;18.33;;;13.23;;
40601;SDS011;26310;50.278;19.032;2022-12-13T19:31:41;25.67;;;15.37;;
40601;SDS011;26310;50.278;19.032;2022-12-13T19:36:44;19.10;;;10.17;;
40601;SDS011;26310;50.278;19.032;2022-12-13T19:41:47;25.30;;;12.13;;
40601;SDS011;26310;50.278;19.032;2022-12-13T19:46:50;25.57;;;10.47;;
40601;SDS011;26310;50.278;19.032;2022-12-13T19:51:54;16.83;;;10.63;;
40601;SDS011;26310;50.278;19.032;2022-12-13T19:56:57;17.77;;;10.13;;
40601;SDS011;26310;50.278;19.032;2022-12-13T20:02:08;17.13;;;10.60;;
40601;SDS011;26310;50.278;19.032;2022-12-13T20:07:13;15.57;;;9.90;;
40601;SDS011;26310;50.278;19.032;2022-12-13T20:12:16;18.83;;;9.70;;
40601;SDS011;26310;50.278;19.032;2022-12-13T20:17:19;21.83;;;10.90;;
40601;SDS011;26310;50.278;19.032;2022-12-13T20:22:22;21.23;;;11.07;;
40601;SDS011;26310;50.278;19.032;2022-12-13T20:27:25;17.57;;;11.43;;
40601;SDS011;26310;50.278;19.032;2022-12-13T20:32:28;21.77;;;10.83;;
40601;SDS011;26310;50.278;19.032;2022-12-13T20:37:31;22.00;;;12.07;;
40601;SDS011;26310;50.278;19.032;2022-12-13T20:42:34;29.77;;;11.57;;
40601;SDS011;26310;50.278;19.032;2022-12-13T20:47:37;19.67;;;10.33;;
40601;SDS011;26310;50.278;19.032;2022-12-13T20:52:40;22.57;;;11.40;;
40601;SDS011;26310;50.278;19.032;2022-12-13T20:57:51;20.00;;;11.17;;
40601;SDS011;26310;50.278;19.032;2022-12-13T21:02:54;23.30;;;11.43;;
40601;SDS011;26310;50.278;19.032;2022-12-13T21:07:56;33.20;;;11.67;;
40601;SDS011;26310;50.278;19.032;2022-12-13T21:13:18;20.77;;;11.13;;
40601;SDS011;26310;50.278;19.032;2022-12-13T21:18:21;21.23;;;12.67;;
40601;SDS011;26310;50.278;19.032;2022-12-13T21:23:27;30.47;;;15.43;;
40601;SDS011;26310;50.278;19.032;2022-12-13T21:28:30;28.63;;;13.00;;
40601;SDS011;26310;50.278;19.032;2022-12-13T21:33:36;28.50;;;14.03;;
40601;SDS011;26310;50.278;19.032;2022-12-13T21:38:42;17.13;;;10.97;;
40601;SDS011;26310;50.278;19.032;2022-12-13T21:43:45;22.67;;;10.93;;
40601;SDS011;26310;50.278;19.032;2022-12-13T21:48:49;28.83;;;11.33;;
40601;SDS011;26310;50.278;19.032;2022-12-13T21:53:55;23.77;;;10.07;;
40601;SDS011;26310;50.278;19.032;2022-12-13T21:58:58;35.50;;;13.50;;
40601;SDS011;26310;50.278;19.032;2022-12-13T22:04:16;41.87;;;20.67;;
40601;SDS011;26310;50.278;19.032;2022-12-13T22:09:20;54.97;;;20.07;;
40601;SDS011;26310;50.278;19.032;2022-12-13T22:14:23;55.87;;;21.90;;
40601;SDS011;26310;50.278;19.032;2022-12-13T22:19:26;37.33;;;21.30;;
40601;SDS011;26310;50.278;19.032;2022-12-13T22:24:29;33.27;;;15.97;;
40601;SDS011;26310;50.278;19.032;2022-12-13T22:29:32;37.37;;;16.27;;
40601;SDS011;26310;50.278;19.032;2022-12-13T22:34:35;32.43;;;14.93;;
40601;SDS011;26310;50.278;19.032;2022-12-13T22:39:38;25.47;;;12.90;;
40601;SDS011;26310;50.278;19.032;2022-12-13T22:44:41;24.10;;;11.20;;
40601;SDS011;26310;50.278;19.032;2022-12-13T22:49:44;28.83;;;12.80;;
40601;SDS011;26310;50.278;19.032;2022-12-13T22:54:49;41.27;;;20.17;;
40601;SDS011;26310;50.278;19.032;2022-12-13T22:59:52;44.07;;;22.43;;
40601;SDS011;26310;50.278;19.032;2022-12-13T23:04:55;52.17;;;20.07;;
40601;SDS011;26310;50.278;19.032;2022-12-13T23:09:58;36.60;;;18.27;;
40601;SDS011;26310;50.278;19.032;2022-12-13T23:15:01;28.20;;;15.30;;
40601;SDS011;26310;50.278;19.032;2022-12-13T23:20:04;49.10;;;17.73;;
40601;SDS011;26310;50.278;19.032;2022-12-13T23:25:08;35.73;;;15.63;;
40601;SDS011;26310;50.278;19.032;2022-12-13T23:30:11;33.43;;;17.70;;
40601;SDS011;26310;50.278;19.032;2022-12-13T23:35:14;39.70;;;18.53;;
40601;SDS011;26310;50.278;19.032;2022-12-13T23:40:17;39.53;;;19.70;;
40601;SDS011;26310;50.278;19.032;2022-12-13T23:45:20;39.13;;;18.47;;
40601;SDS011;26310;50.278;19.032;2022-12-13T23:50:24;43.00;;;18.90;;
40601;SDS011;26310;50.278;19.032;2022-12-13T23:55:26;41.07;;;17.83;;
